KDVK

Stuart Powell Field Airport

Danville, Kentucky, USA
METAR KDVK 110415Z AUTO 00000KT 10SM CLR M05/M08 A3027 RMK AO2
Observed Flight Rules
Dec-11 @ 04:15 UTC (17 minutes ago) Visual Flight Rules
Visibility Clouds
10 miles
  • Clear skies
Temperatures Readings
Current -5°C / 23°F
Dewpoint -8°C / 18°F
Humidity 80%
Altimeter 30.27" Hg
Pressure 1025 hPa
Elevation 312
METAR KDVK 110415Z AUTO 00000KT 10SM CLR M05/M08 A3027 RMK AO2
Observed Flight Rules
Dec-11 @ 04:15 UTC
(17 minutes ago)
VFR
Clouds
  • Clear skies
Temperature Dewpoint
-5°C / 23°F -8°C / 18°F
Humidity Altimeter Pressure
80% 30.27" Hg 1025 hPa